sensor_id;sensor_type;location;lat;lon;timestamp;temperature;humidity
48806;DHT22;34625;47.176;27.548;2024-01-11T00:00:46;21.60;49.60
48806;DHT22;34625;47.176;27.548;2024-01-11T00:03:12;21.20;49.50
48806;DHT22;34625;47.176;27.548;2024-01-11T00:05:38;21.20;49.80
48806;DHT22;34625;47.176;27.548;2024-01-11T00:08:04;21.20;50.10
48806;DHT22;34625;47.176;27.548;2024-01-11T00:10:31;21.40;48.20
48806;DHT22;34625;47.176;27.548;2024-01-11T00:12:57;21.20;49.30
48806;DHT22;34625;47.176;27.548;2024-01-11T00:15:23;21.40;49.20
48806;DHT22;34625;47.176;27.548;2024-01-11T00:17:49;21.10;49.30
48806;DHT22;34625;47.176;27.548;2024-01-11T00:20:15;21.10;49.40
48806;DHT22;34625;47.176;27.548;2024-01-11T00:22:41;21.20;49.70
48806;DHT22;34625;47.176;27.548;2024-01-11T00:25:07;21.30;49.30
48806;DHT22;34625;47.176;27.548;2024-01-11T00:27:34;21.30;49.20
48806;DHT22;34625;47.176;27.548;2024-01-11T00:30:00;21.20;48.90
48806;DHT22;34625;47.176;27.548;2024-01-11T00:32:26;21.20;49.30
48806;DHT22;34625;47.176;27.548;2024-01-11T00:34:52;21.30;47.70
48806;DHT22;34625;47.176;27.548;2024-01-11T00:37:18;21.30;48.60
48806;DHT22;34625;47.176;27.548;2024-01-11T00:39:44;21.00;48.80
48806;DHT22;34625;47.176;27.548;2024-01-11T00:42:10;21.80;48.80
48806;DHT22;34625;47.176;27.548;2024-01-11T00:44:36;21.10;48.60
48806;DHT22;34625;47.176;27.548;2024-01-11T00:47:02;21.40;49.10
48806;DHT22;34625;47.176;27.548;2024-01-11T00:49:29;21.00;49.00
48806;DHT22;34625;47.176;27.548;2024-01-11T00:51:55;21.00;50.00
48806;DHT22;34625;47.176;27.548;2024-01-11T00:54:21;21.10;49.50
48806;DHT22;34625;47.176;27.548;2024-01-11T00:56:47;21.20;49.40
48806;DHT22;34625;47.176;27.548;2024-01-11T00:59:13;21.20;49.30
48806;DHT22;34625;47.176;27.548;2024-01-11T01:01:40;21.10;49.60
48806;DHT22;34625;47.176;27.548;2024-01-11T01:04:06;21.00;48.20
48806;DHT22;34625;47.176;27.548;2024-01-11T01:06:32;20.90;48.70
48806;DHT22;34625;47.176;27.548;2024-01-11T01:08:58;21.60;49.40
48806;DHT22;34625;47.176;27.548;2024-01-11T01:11:24;20.80;48.90
48806;DHT22;34625;47.176;27.548;2024-01-11T01:13:50;20.80;50.40
48806;DHT22;34625;47.176;27.548;2024-01-11T01:16:16;20.90;48.40
48806;DHT22;34625;47.176;27.548;2024-01-11T01:18:43;21.00;48.50
48806;DHT22;34625;47.176;27.548;2024-01-11T01:21:10;20.80;50.00
48806;DHT22;34625;47.176;27.548;2024-01-11T01:23:36;21.00;48.10
48806;DHT22;34625;47.176;27.548;2024-01-11T01:26:02;20.90;48.20
48806;DHT22;34625;47.176;27.548;2024-01-11T01:28:28;20.90;48.20
48806;DHT22;34625;47.176;27.548;2024-01-11T01:30:54;20.90;48.20
48806;DHT22;34625;47.176;27.548;2024-01-11T01:33:20;20.90;48.30
48806;DHT22;34625;47.176;27.548;2024-01-11T01:35:46;20.80;48.40
48806;DHT22;34625;47.176;27.548;2024-01-11T01:38:12;20.80;48.60
48806;DHT22;34625;47.176;27.548;2024-01-11T01:40:38;20.80;48.30
48806;DHT22;34625;47.176;27.548;2024-01-11T01:43:07;20.70;48.60
48806;DHT22;34625;47.176;27.548;2024-01-11T01:45:36;20.90;50.00
48806;DHT22;34625;47.176;27.548;2024-01-11T01:48:03;21.00;47.70
48806;DHT22;34625;47.176;27.548;2024-01-11T01:50:30;20.80;48.40
48806;DHT22;34625;47.176;27.548;2024-01-11T01:52:57;20.70;48.80
48806;DHT22;34625;47.176;27.548;2024-01-11T01:55:25;20.40;48.70
48806;DHT22;34625;47.176;27.548;2024-01-11T01:57:52;20.70;49.10
48806;DHT22;34625;47.176;27.548;2024-01-11T02:00:19;20.60;49.00
48806;DHT22;34625;47.176;27.548;2024-01-11T02:02:46;20.60;48.90
48806;DHT22;34625;47.176;27.548;2024-01-11T02:05:16;20.80;49.20
48806;DHT22;34625;47.176;27.548;2024-01-11T02:07:44;20.70;50.40
48806;DHT22;34625;47.176;27.548;2024-01-11T02:10:10;20.70;48.50
48806;DHT22;34625;47.176;27.548;2024-01-11T02:12:36;20.70;49.20
48806;DHT22;34625;47.176;27.548;2024-01-11T02:15:05;20.80;48.30
48806;DHT22;34625;47.176;27.548;2024-01-11T02:17:33;20.50;48.30
48806;DHT22;34625;47.176;27.548;2024-01-11T02:20:00;20.60;48.20
48806;DHT22;34625;47.176;27.548;2024-01-11T02:22:38;20.70;48.10
48806;DHT22;34625;47.176;27.548;2024-01-11T02:25:06;20.80;48.20
48806;DHT22;34625;47.176;27.548;2024-01-11T02:27:45;20.50;48.40
48806;DHT22;34625;47.176;27.548;2024-01-11T02:30:11;20.90;48.10
48806;DHT22;34625;47.176;27.548;2024-01-11T02:32:38;20.70;48.10
48806;DHT22;34625;47.176;27.548;2024-01-11T02:35:04;20.70;48.60
48806;DHT22;34625;47.176;27.548;2024-01-11T02:37:31;20.70;48.80
48806;DHT22;34625;47.176;27.548;2024-01-11T02:39:57;20.80;48.70
48806;DHT22;34625;47.176;27.548;2024-01-11T02:42:23;20.60;48.30
48806;DHT22;34625;47.176;27.548;2024-01-11T02:44:50;20.60;48.40
48806;DHT22;34625;47.176;27.548;2024-01-11T02:47:16;20.50;49.50
48806;DHT22;34625;47.176;27.548;2024-01-11T02:49:42;20.70;48.40
48806;DHT22;34625;47.176;27.548;2024-01-11T02:52:08;20.50;48.80
48806;DHT22;34625;47.176;27.548;2024-01-11T02:54:34;20.80;50.30
48806;DHT22;34625;47.176;27.548;2024-01-11T02:57:00;20.50;48.80
48806;DHT22;34625;47.176;27.548;2024-01-11T02:59:26;20.50;50.30
48806;DHT22;34625;47.176;27.548;2024-01-11T03:01:52;19.50;48.40
48806;DHT22;34625;47.176;27.548;2024-01-11T03:04:18;20.50;48.90
48806;DHT22;34625;47.176;27.548;2024-01-11T03:06:44;20.40;48.90
48806;DHT22;34625;47.176;27.548;2024-01-11T03:09:10;20.60;48.40
48806;DHT22;34625;47.176;27.548;2024-01-11T03:11:37;20.20;48.30
48806;DHT22;34625;47.176;27.548;2024-01-11T03:14:03;20.40;48.50
48806;DHT22;34625;47.176;27.548;2024-01-11T03:16:29;20.40;48.50
48806;DHT22;34625;47.176;27.548;2024-01-11T03:18:55;20.50;49.60
48806;DHT22;34625;47.176;27.548;2024-01-11T03:21:21;20.70;47.70
48806;DHT22;34625;47.176;27.548;2024-01-11T03:23:48;20.60;47.80
48806;DHT22;34625;47.176;27.548;2024-01-11T03:26:16;20.60;47.90
48806;DHT22;34625;47.176;27.548;2024-01-11T03:28:43;20.70;48.00
48806;DHT22;34625;47.176;27.548;2024-01-11T03:31:10;20.60;47.90
48806;DHT22;34625;47.176;27.548;2024-01-11T03:33:36;20.60;47.90
48806;DHT22;34625;47.176;27.548;2024-01-11T03:36:10;20.50;47.80
48806;DHT22;34625;47.176;27.548;2024-01-11T03:38:37;20.50;47.70
48806;DHT22;34625;47.176;27.548;2024-01-11T03:41:08;20.60;47.80
48806;DHT22;34625;47.176;27.548;2024-01-11T03:43:37;20.50;48.00
48806;DHT22;34625;47.176;27.548;2024-01-11T03:46:04;20.60;49.10
48806;DHT22;34625;47.176;27.548;2024-01-11T03:48:30;20.60;47.60
48806;DHT22;34625;47.176;27.548;2024-01-11T03:50:57;20.60;49.30
48806;DHT22;34625;47.176;27.548;2024-01-11T03:53:23;20.60;48.70
48806;DHT22;34625;47.176;27.548;2024-01-11T03:55:49;20.60;48.90
48806;DHT22;34625;47.176;27.548;2024-01-11T03:58:15;20.80;48.80
48806;DHT22;34625;47.176;27.548;2024-01-11T04:00:41;20.80;48.80
48806;DHT22;34625;47.176;27.548;2024-01-11T04:03:07;20.70;48.80
48806;DHT22;34625;47.176;27.548;2024-01-11T04:05:33;20.60;47.50
48806;DHT22;34625;47.176;27.548;2024-01-11T04:08:02;20.60;47.80
48806;DHT22;34625;47.176;27.548;2024-01-11T04:10:28;20.50;49.70
48806;DHT22;34625;47.176;27.548;2024-01-11T04:12:54;20.60;47.40
48806;DHT22;34625;47.176;27.548;2024-01-11T04:15:20;20.50;47.90
48806;DHT22;34625;47.176;27.548;2024-01-11T04:17:46;19.90;47.90
48806;DHT22;34625;47.176;27.548;2024-01-11T04:20:13;20.30;48.30
48806;DHT22;34625;47.176;27.548;2024-01-11T04:22:39;20.40;48.20
48806;DHT22;34625;47.176;27.548;2024-01-11T04:25:06;20.30;48.20
48806;DHT22;34625;47.176;27.548;2024-01-11T04:27:32;20.50;48.30
48806;DHT22;34625;47.176;27.548;2024-01-11T04:29:58;20.50;49.50
48806;DHT22;34625;47.176;27.548;2024-01-11T04:32:24;20.40;49.70
48806;DHT22;34625;47.176;27.548;2024-01-11T04:34:51;20.40;48.40
48806;DHT22;34625;47.176;27.548;2024-01-11T04:37:18;20.40;47.80
48806;DHT22;34625;47.176;27.548;2024-01-11T04:39:44;20.50;48.30
48806;DHT22;34625;47.176;27.548;2024-01-11T04:42:10;20.50;48.10
48806;DHT22;34625;47.176;27.548;2024-01-11T04:44:36;20.60;47.30
48806;DHT22;34625;47.176;27.548;2024-01-11T04:47:03;20.70;46.90
48806;DHT22;34625;47.176;27.548;2024-01-11T04:49:29;20.70;47.30
48806;DHT22;34625;47.176;27.548;2024-01-11T04:51:55;20.60;47.40
48806;DHT22;34625;47.176;27.548;2024-01-11T04:54:21;20.50;47.60
48806;DHT22;34625;47.176;27.548;2024-01-11T04:56:47;20.50;47.50
48806;DHT22;34625;47.176;27.548;2024-01-11T04:59:13;20.60;47.60
48806;DHT22;34625;47.176;27.548;2024-01-11T05:01:39;20.50;49.00
48806;DHT22;34625;47.176;27.548;2024-01-11T05:04:07;20.50;48.60
48806;DHT22;34625;47.176;27.548;2024-01-11T05:06:33;20.60;48.30
48806;DHT22;34625;47.176;27.548;2024-01-11T05:08:59;20.40;48.10
48806;DHT22;34625;47.176;27.548;2024-01-11T05:11:25;20.90;48.60
48806;DHT22;34625;47.176;27.548;2024-01-11T05:13:52;20.80;47.90
48806;DHT22;34625;47.176;27.548;2024-01-11T05:16:22;21.20;49.90
48806;DHT22;34625;47.176;27.548;2024-01-11T05:18:49;21.90;52.10
48806;DHT22;34625;47.176;27.548;2024-01-11T05:21:15;22.20;47.30
48806;DHT22;34625;47.176;27.548;2024-01-11T05:23:41;22.40;49.80
48806;DHT22;34625;47.176;27.548;2024-01-11T05:26:08;22.40;45.60
48806;DHT22;34625;47.176;27.548;2024-01-11T05:28:35;22.20;43.90
48806;DHT22;34625;47.176;27.548;2024-01-11T05:31:01;22.00;42.90
48806;DHT22;34625;47.176;27.548;2024-01-11T05:33:27;21.20;43.30
48806;DHT22;34625;47.176;27.548;2024-01-11T05:35:53;21.60;44.90
48806;DHT22;34625;47.176;27.548;2024-01-11T05:38:19;21.70;45.20
48806;DHT22;34625;47.176;27.548;2024-01-11T05:40:46;21.60;45.40
48806;DHT22;34625;47.176;27.548;2024-01-11T05:43:12;21.40;44.20
48806;DHT22;34625;47.176;27.548;2024-01-11T05:45:38;21.30;44.70
48806;DHT22;34625;47.176;27.548;2024-01-11T05:48:04;21.20;44.80
48806;DHT22;34625;47.176;27.548;2024-01-11T05:50:31;21.20;44.80
48806;DHT22;34625;47.176;27.548;2024-01-11T05:52:58;21.30;46.50
48806;DHT22;34625;47.176;27.548;2024-01-11T05:55:24;21.30;45.90
48806;DHT22;34625;47.176;27.548;2024-01-11T05:57:50;21.20;46.10
48806;DHT22;34625;47.176;27.548;2024-01-11T06:00:16;21.20;44.60
48806;DHT22;34625;47.176;27.548;2024-01-11T06:02:43;21.10;41.20
48806;DHT22;34625;47.176;27.548;2024-01-11T06:05:09;20.90;37.90
48806;DHT22;34625;47.176;27.548;2024-01-11T06:07:36;20.90;37.10
48806;DHT22;34625;47.176;27.548;2024-01-11T06:10:02;21.00;38.50
48806;DHT22;34625;47.176;27.548;2024-01-11T06:12:29;21.10;40.60
48806;DHT22;34625;47.176;27.548;2024-01-11T06:14:55;21.30;38.50
48806;DHT22;34625;47.176;27.548;2024-01-11T06:17:21;21.10;38.20
48806;DHT22;34625;47.176;27.548;2024-01-11T06:19:47;20.90;36.80
48806;DHT22;34625;47.176;27.548;2024-01-11T06:22:13;21.00;37.70
48806;DHT22;34625;47.176;27.548;2024-01-11T06:24:39;20.30;37.30
48806;DHT22;34625;47.176;27.548;2024-01-11T06:27:05;21.00;35.20
48806;DHT22;34625;47.176;27.548;2024-01-11T06:29:31;20.90;34.80
48806;DHT22;34625;47.176;27.548;2024-01-11T06:31:57;20.60;37.70
48806;DHT22;34625;47.176;27.548;2024-01-11T06:34:23;21.00;38.90
48806;DHT22;34625;47.176;27.548;2024-01-11T06:36:49;21.10;38.50
48806;DHT22;34625;47.176;27.548;2024-01-11T06:39:15;21.20;37.60
48806;DHT22;34625;47.176;27.548;2024-01-11T06:41:43;21.20;35.50
48806;DHT22;34625;47.176;27.548;2024-01-11T06:44:09;21.20;36.20
48806;DHT22;34625;47.176;27.548;2024-01-11T06:46:35;21.30;37.70
48806;DHT22;34625;47.176;27.548;2024-01-11T06:49:10;21.80;42.50
48806;DHT22;34625;47.176;27.548;2024-01-11T06:51:37;21.50;43.90
48806;DHT22;34625;47.176;27.548;2024-01-11T06:54:04;21.50;44.10
48806;DHT22;34625;47.176;27.548;2024-01-11T06:56:30;21.60;44.20
48806;DHT22;34625;47.176;27.548;2024-01-11T06:58:56;21.50;45.00
48806;DHT22;34625;47.176;27.548;2024-01-11T07:01:23;21.80;44.30
48806;DHT22;34625;47.176;27.548;2024-01-11T07:03:49;22.10;45.30
48806;DHT22;34625;47.176;27.548;2024-01-11T07:06:15;21.80;45.10
48806;DHT22;34625;47.176;27.548;2024-01-11T07:08:41;21.80;45.20
48806;DHT22;34625;47.176;27.548;2024-01-11T07:11:07;22.00;45.40
48806;DHT22;34625;47.176;27.548;2024-01-11T07:13:33;22.00;44.90
48806;DHT22;34625;47.176;27.548;2024-01-11T07:16:00;22.20;43.60
48806;DHT22;34625;47.176;27.548;2024-01-11T07:18:26;21.60;43.40
48806;DHT22;34625;47.176;27.548;2024-01-11T07:20:53;22.00;44.40
48806;DHT22;34625;47.176;27.548;2024-01-11T07:23:21;22.10;44.10
48806;DHT22;34625;47.176;27.548;2024-01-11T07:25:47;22.10;42.20
48806;DHT22;34625;47.176;27.548;2024-01-11T07:28:14;21.90;43.10
48806;DHT22;34625;47.176;27.548;2024-01-11T07:30:40;21.80;45.10
48806;DHT22;34625;47.176;27.548;2024-01-11T07:33:06;21.70;44.20
48806;DHT22;34625;47.176;27.548;2024-01-11T07:35:32;21.70;44.40
48806;DHT22;34625;47.176;27.548;2024-01-11T07:37:58;21.80;44.30
48806;DHT22;34625;47.176;27.548;2024-01-11T07:40:24;21.70;44.70
48806;DHT22;34625;47.176;27.548;2024-01-11T07:42:50;21.50;45.00
48806;DHT22;34625;47.176;27.548;2024-01-11T07:45:16;21.50;45.30
48806;DHT22;34625;47.176;27.548;2024-01-11T07:47:42;21.50;45.80
48806;DHT22;34625;47.176;27.548;2024-01-11T07:50:09;21.50;47.70
48806;DHT22;34625;47.176;27.548;2024-01-11T07:52:36;21.60;47.20
48806;DHT22;34625;47.176;27.548;2024-01-11T07:55:03;21.40;45.60
48806;DHT22;34625;47.176;27.548;2024-01-11T07:57:33;22.30;47.10
48806;DHT22;34625;47.176;27.548;2024-01-11T08:00:00;21.70;47.10
48806;DHT22;34625;47.176;27.548;2024-01-11T08:02:26;22.20;47.20
48806;DHT22;34625;47.176;27.548;2024-01-11T08:04:53;21.90;46.90
48806;DHT22;34625;47.176;27.548;2024-01-11T08:07:19;21.90;47.40
48806;DHT22;34625;47.176;27.548;2024-01-11T08:09:45;21.90;47.60
48806;DHT22;34625;47.176;27.548;2024-01-11T08:12:11;21.00;46.60
48806;DHT22;34625;47.176;27.548;2024-01-11T08:14:39;21.50;46.90
48806;DHT22;34625;47.176;27.548;2024-01-11T08:17:05;21.40;50.30
48806;DHT22;34625;47.176;27.548;2024-01-11T08:19:31;21.60;49.30
48806;DHT22;34625;47.176;27.548;2024-01-11T08:21:58;21.60;49.40
48806;DHT22;34625;47.176;27.548;2024-01-11T08:24:24;21.50;50.30
48806;DHT22;34625;47.176;27.548;2024-01-11T08:26:51;21.80;48.90
48806;DHT22;34625;47.176;27.548;2024-01-11T08:29:17;21.50;48.40
48806;DHT22;34625;47.176;27.548;2024-01-11T08:31:48;21.60;50.00
48806;DHT22;34625;47.176;27.548;2024-01-11T08:34:14;21.40;48.60
48806;DHT22;34625;47.176;27.548;2024-01-11T08:36:40;21.70;49.70
48806;DHT22;34625;47.176;27.548;2024-01-11T08:39:07;21.50;49.70
48806;DHT22;34625;47.176;27.548;2024-01-11T08:41:34;21.50;49.80
48806;DHT22;34625;47.176;27.548;2024-01-11T08:44:09;21.50;49.60
48806;DHT22;34625;47.176;27.548;2024-01-11T08:46:35;21.70;48.00
48806;DHT22;34625;47.176;27.548;2024-01-11T08:49:02;21.60;49.20
48806;DHT22;34625;47.176;27.548;2024-01-11T08:51:31;21.30;49.60
48806;DHT22;34625;47.176;27.548;2024-01-11T08:54:00;21.50;48.70
48806;DHT22;34625;47.176;27.548;2024-01-11T08:56:26;21.40;48.70
48806;DHT22;34625;47.176;27.548;2024-01-11T08:58:53;21.40;48.90
48806;DHT22;34625;47.176;27.548;2024-01-11T09:01:19;21.40;50.20
48806;DHT22;34625;47.176;27.548;2024-01-11T09:03:46;21.60;48.60
48806;DHT22;34625;47.176;27.548;2024-01-11T09:06:13;21.60;50.20
48806;DHT22;34625;47.176;27.548;2024-01-11T09:08:39;21.70;48.40
48806;DHT22;34625;47.176;27.548;2024-01-11T09:11:07;21.60;50.50
48806;DHT22;34625;47.176;27.548;2024-01-11T09:13:36;21.20;50.60
48806;DHT22;34625;47.176;27.548;2024-01-11T09:16:02;21.50;49.40
48806;DHT22;34625;47.176;27.548;2024-01-11T09:18:28;21.30;48.60
48806;DHT22;34625;47.176;27.548;2024-01-11T09:20:54;21.60;49.60
48806;DHT22;34625;47.176;27.548;2024-01-11T09:23:22;21.60;47.90
48806;DHT22;34625;47.176;27.548;2024-01-11T09:25:48;21.60;49.10
48806;DHT22;34625;47.176;27.548;2024-01-11T09:28:14;22.00;49.20
48806;DHT22;34625;47.176;27.548;2024-01-11T09:30:40;21.80;48.10
48806;DHT22;34625;47.176;27.548;2024-01-11T09:33:06;21.70;48.60
48806;DHT22;34625;47.176;27.548;2024-01-11T09:35:32;21.60;48.10
48806;DHT22;34625;47.176;27.548;2024-01-11T09:37:58;21.50;48.40
48806;DHT22;34625;47.176;27.548;2024-01-11T09:40:24;21.60;48.30
48806;DHT22;34625;47.176;27.548;2024-01-11T09:42:50;21.90;49.40
48806;DHT22;34625;47.176;27.548;2024-01-11T09:45:17;21.90;50.10
48806;DHT22;34625;47.176;27.548;2024-01-11T09:47:46;21.60;45.00
48806;DHT22;34625;47.176;27.548;2024-01-11T09:50:14;21.80;46.10
48806;DHT22;34625;47.176;27.548;2024-01-11T09:52:49;22.10;45.20
48806;DHT22;34625;47.176;27.548;2024-01-11T09:55:16;22.10;49.00
48806;DHT22;34625;47.176;27.548;2024-01-11T09:57:45;21.80;49.70
48806;DHT22;34625;47.176;27.548;2024-01-11T10:00:21;22.10;48.90
48806;DHT22;34625;47.176;27.548;2024-01-11T10:02:49;22.00;49.20
48806;DHT22;34625;47.176;27.548;2024-01-11T10:05:18;22.50;50.50
48806;DHT22;34625;47.176;27.548;2024-01-11T10:07:44;22.10;50.00
48806;DHT22;34625;47.176;27.548;2024-01-11T10:10:13;22.50;49.30
48806;DHT22;34625;47.176;27.548;2024-01-11T10:12:43;22.40;49.40
48806;DHT22;34625;47.176;27.548;2024-01-11T10:15:10;22.20;49.10
48806;DHT22;34625;47.176;27.548;2024-01-11T10:17:41;22.20;49.80
48806;DHT22;34625;47.176;27.548;2024-01-11T10:20:08;22.20;48.90
48806;DHT22;34625;47.176;27.548;2024-01-11T10:22:36;22.60;51.20
48806;DHT22;34625;47.176;27.548;2024-01-11T10:27:38;22.20;50.30
48806;DHT22;34625;47.176;27.548;2024-01-11T10:30:04;22.70;56.40
48806;DHT22;34625;47.176;27.548;2024-01-11T10:32:33;23.00;51.20
48806;DHT22;34625;47.176;27.548;2024-01-11T10:35:03;22.90;48.90
48806;DHT22;34625;47.176;27.548;2024-01-11T10:37:31;22.80;50.10
48806;DHT22;34625;47.176;27.548;2024-01-11T10:40:03;23.20;49.40
48806;DHT22;34625;47.176;27.548;2024-01-11T10:42:31;23.50;54.00
48806;DHT22;34625;47.176;27.548;2024-01-11T10:44:59;23.80;49.50
48806;DHT22;34625;47.176;27.548;2024-01-11T10:47:30;23.90;44.60
48806;DHT22;34625;47.176;27.548;2024-01-11T10:49:59;24.00;44.00
48806;DHT22;34625;47.176;27.548;2024-01-11T10:52:31;24.00;45.00
48806;DHT22;34625;47.176;27.548;2024-01-11T10:55:01;24.00;45.80
48806;DHT22;34625;47.176;27.548;2024-01-11T10:57:29;23.90;49.00
48806;DHT22;34625;47.176;27.548;2024-01-11T10:59:55;24.10;46.90
48806;DHT22;34625;47.176;27.548;2024-01-11T11:02:23;24.50;48.90
48806;DHT22;34625;47.176;27.548;2024-01-11T11:04:51;24.70;50.10
48806;DHT22;34625;47.176;27.548;2024-01-11T11:07:19;24.90;51.80
48806;DHT22;34625;47.176;27.548;2024-01-11T11:09:46;25.00;50.90
48806;DHT22;34625;47.176;27.548;2024-01-11T11:12:16;24.80;48.70
48806;DHT22;34625;47.176;27.548;2024-01-11T11:14:44;24.70;48.30
48806;DHT22;34625;47.176;27.548;2024-01-11T11:17:14;24.20;47.20
48806;DHT22;34625;47.176;27.548;2024-01-11T11:19:42;24.50;47.80
48806;DHT22;34625;47.176;27.548;2024-01-11T11:22:08;24.50;46.50
48806;DHT22;34625;47.176;27.548;2024-01-11T11:24:34;24.40;48.20
48806;DHT22;34625;47.176;27.548;2024-01-11T11:27:01;24.40;46.90
48806;DHT22;34625;47.176;27.548;2024-01-11T11:29:27;24.30;47.10
48806;DHT22;34625;47.176;27.548;2024-01-11T11:31:53;24.20;48.30
48806;DHT22;34625;47.176;27.548;2024-01-11T11:34:20;24.20;46.80
48806;DHT22;34625;47.176;27.548;2024-01-11T11:36:47;24.20;47.20
48806;DHT22;34625;47.176;27.548;2024-01-11T11:39:15;24.30;47.30
48806;DHT22;34625;47.176;27.548;2024-01-11T11:41:41;23.90;49.10
48806;DHT22;34625;47.176;27.548;2024-01-11T11:44:12;23.90;47.60
48806;DHT22;34625;47.176;27.548;2024-01-11T11:46:41;24.00;47.60
48806;DHT22;34625;47.176;27.548;2024-01-11T11:49:07;23.80;47.80
48806;DHT22;34625;47.176;27.548;2024-01-11T11:51:39;23.80;49.50
48806;DHT22;34625;47.176;27.548;2024-01-11T11:54:08;23.80;47.70
48806;DHT22;34625;47.176;27.548;2024-01-11T11:56:36;23.70;48.00
48806;DHT22;34625;47.176;27.548;2024-01-11T11:59:03;23.60;48.30
48806;DHT22;34625;47.176;27.548;2024-01-11T12:01:31;23.70;48.40
48806;DHT22;34625;47.176;27.548;2024-01-11T12:03:58;23.60;48.60
48806;DHT22;34625;47.176;27.548;2024-01-11T12:06:24;23.50;50.30
48806;DHT22;34625;47.176;27.548;2024-01-11T12:08:52;23.40;49.70
48806;DHT22;34625;47.176;27.548;2024-01-11T12:11:21;23.30;49.80
48806;DHT22;34625;47.176;27.548;2024-01-11T12:13:48;23.30;50.80
48806;DHT22;34625;47.176;27.548;2024-01-11T12:16:15;23.30;49.80
48806;DHT22;34625;47.176;27.548;2024-01-11T12:18:41;23.40;49.70
48806;DHT22;34625;47.176;27.548;2024-01-11T12:21:08;23.40;49.70
48806;DHT22;34625;47.176;27.548;2024-01-11T12:23:36;23.40;50.20
48806;DHT22;34625;47.176;27.548;2024-01-11T12:26:02;23.70;47.50
48806;DHT22;34625;47.176;27.548;2024-01-11T12:28:33;24.00;47.90
48806;DHT22;34625;47.176;27.548;2024-01-11T12:31:00;24.20;46.40
48806;DHT22;34625;47.176;27.548;2024-01-11T12:33:26;23.60;50.40
48806;DHT22;34625;47.176;27.548;2024-01-11T12:35:54;24.50;47.40
48806;DHT22;34625;47.176;27.548;2024-01-11T12:38:20;24.40;50.30
48806;DHT22;34625;47.176;27.548;2024-01-11T12:40:46;24.70;46.00
48806;DHT22;34625;47.176;27.548;2024-01-11T12:43:13;24.70;46.10
48806;DHT22;34625;47.176;27.548;2024-01-11T12:45:39;24.70;45.60
48806;DHT22;34625;47.176;27.548;2024-01-11T12:48:08;24.60;45.70
48806;DHT22;34625;47.176;27.548;2024-01-11T12:50:35;23.80;47.80
48806;DHT22;34625;47.176;27.548;2024-01-11T12:53:12;24.60;46.60
48806;DHT22;34625;47.176;27.548;2024-01-11T12:56:03;24.40;46.60
48806;DHT22;34625;47.176;27.548;2024-01-11T12:58:29;24.60;48.30
48806;DHT22;34625;47.176;27.548;2024-01-11T13:00:55;24.70;47.80
48806;DHT22;34625;47.176;27.548;2024-01-11T13:03:24;24.50;46.20
48806;DHT22;34625;47.176;27.548;2024-01-11T13:05:53;24.50;46.30
48806;DHT22;34625;47.176;27.548;2024-01-11T13:08:19;24.50;48.30
48806;DHT22;34625;47.176;27.548;2024-01-11T13:10:45;24.10;46.40
48806;DHT22;34625;47.176;27.548;2024-01-11T13:13:13;24.30;47.10
48806;DHT22;34625;47.176;27.548;2024-01-11T13:15:39;24.20;47.90
48806;DHT22;34625;47.176;27.548;2024-01-11T13:18:06;24.30;47.80
48806;DHT22;34625;47.176;27.548;2024-01-11T13:20:32;24.30;47.50
48806;DHT22;34625;47.176;27.548;2024-01-11T13:23:15;24.30;47.40
48806;DHT22;34625;47.176;27.548;2024-01-11T13:25:43;24.20;47.40
48806;DHT22;34625;47.176;27.548;2024-01-11T13:28:09;24.30;47.50
48806;DHT22;34625;47.176;27.548;2024-01-11T13:30:40;24.20;47.50
48806;DHT22;34625;47.176;27.548;2024-01-11T13:33:07;24.20;47.60
48806;DHT22;34625;47.176;27.548;2024-01-11T13:35:35;24.20;47.50
48806;DHT22;34625;47.176;27.548;2024-01-11T13:38:02;24.20;48.30
48806;DHT22;34625;47.176;27.548;2024-01-11T13:40:29;24.20;50.00
48806;DHT22;34625;47.176;27.548;2024-01-11T13:42:55;24.10;49.60
48806;DHT22;34625;47.176;27.548;2024-01-11T13:45:25;24.20;49.90
48806;DHT22;34625;47.176;27.548;2024-01-11T13:47:52;23.00;48.60
48806;DHT22;34625;47.176;27.548;2024-01-11T13:50:23;23.90;50.90
48806;DHT22;34625;47.176;27.548;2024-01-11T13:52:52;23.90;50.50
48806;DHT22;34625;47.176;27.548;2024-01-11T13:55:19;23.50;49.40
48806;DHT22;34625;47.176;27.548;2024-01-11T13:57:48;24.20;48.90
48806;DHT22;34625;47.176;27.548;2024-01-11T14:00:14;23.80;48.80
48806;DHT22;34625;47.176;27.548;2024-01-11T14:02:40;23.90;50.20
48806;DHT22;34625;47.176;27.548;2024-01-11T14:05:11;24.10;48.30
48806;DHT22;34625;47.176;27.548;2024-01-11T14:07:42;24.10;49.30
48806;DHT22;34625;47.176;27.548;2024-01-11T14:10:10;23.50;49.40
48806;DHT22;34625;47.176;27.548;2024-01-11T14:12:40;23.90;49.10
48806;DHT22;34625;47.176;27.548;2024-01-11T14:15:08;23.40;49.70
48806;DHT22;34625;47.176;27.548;2024-01-11T14:17:37;23.50;50.20
48806;DHT22;34625;47.176;27.548;2024-01-11T14:20:04;23.70;49.80
48806;DHT22;34625;47.176;27.548;2024-01-11T14:22:35;23.80;49.70
48806;DHT22;34625;47.176;27.548;2024-01-11T14:25:01;24.00;49.10
48806;DHT22;34625;47.176;27.548;2024-01-11T14:27:29;23.50;49.10
48806;DHT22;34625;47.176;27.548;2024-01-11T14:29:56;23.20;49.20
48806;DHT22;34625;47.176;27.548;2024-01-11T14:32:24;23.10;49.10
48806;DHT22;34625;47.176;27.548;2024-01-11T14:34:52;23.50;50.20
48806;DHT22;34625;47.176;27.548;2024-01-11T14:37:18;22.90;49.20
48806;DHT22;34625;47.176;27.548;2024-01-11T14:39:45;23.70;49.80
48806;DHT22;34625;47.176;27.548;2024-01-11T14:42:12;23.60;48.50
48806;DHT22;34625;47.176;27.548;2024-01-11T14:44:38;23.30;48.90
48806;DHT22;34625;47.176;27.548;2024-01-11T14:47:04;23.30;48.90
48806;DHT22;34625;47.176;27.548;2024-01-11T14:49:30;23.30;49.20
48806;DHT22;34625;47.176;27.548;2024-01-11T14:51:56;23.30;49.10
48806;DHT22;34625;47.176;27.548;2024-01-11T14:54:22;23.40;50.70
48806;DHT22;34625;47.176;27.548;2024-01-11T14:56:48;23.50;48.60
48806;DHT22;34625;47.176;27.548;2024-01-11T14:59:15;23.20;48.70
48806;DHT22;34625;47.176;27.548;2024-01-11T15:01:41;23.40;48.50
48806;DHT22;34625;47.176;27.548;2024-01-11T15:04:07;23.30;48.50
48806;DHT22;34625;47.176;27.548;2024-01-11T15:06:33;23.30;48.60
48806;DHT22;34625;47.176;27.548;2024-01-11T15:08:59;23.40;47.00
48806;DHT22;34625;47.176;27.548;2024-01-11T15:11:25;23.80;51.00
48806;DHT22;34625;47.176;27.548;2024-01-11T15:13:53;24.50;60.00
48806;DHT22;34625;47.176;27.548;2024-01-11T15:16:19;24.70;45.90